»·PEaware :: DAL213 KSAN-KLAX

DAL213 :: KSAN-KLAX

FLIGHT INFORMATION

Flight Status: Arrived
Operator:
Delta Air Lines
More flights by this operator :: More flights under this callsign
Pilot: Nicolas L. (9332)
Aircraft: BOEING 737-800
(B738)
More flights by this aircraft type
Origin: KSAN San Diego Intl-Lindbergh
United States
Destination: KLAX Los Angeles Intl
United States
More flights between these airports :: More routes between these airports
Route: +FALCC1 SLI
File this flight plan on PilotEdge
Remarks: Live Streaming on Twitch "DAL213" and YT
Altitude:
(Current/Filed)
10,000ft
Speed:
(Current/Filed)
400kts
Departed: 06-Dec-18 01:11 PM
Arrived: 06-Dec-18 01:42 PM
Distance/Time
Traveled:
95nm/0:30
Distance/Time
To Go:
Arrived

Flight Plot

Page will automatically refresh every two minutes.

Flight plan parsing failed; only flown route is shown


Map Options




Map Legend


Flown Route
Filed Route
Departure Airport
Arrival Airport
Navaid (VOR, NDB)
Fix

Horizontal Profiles

Position Reports

Time Latitude Longitude Heading Altitude Ground
Speed
06-Dec-18 12:36 32.733948 -117.200446 254 24ft 0kts
06-Dec-18 12:37 32.733948 -117.200446 254 24ft 0kts
06-Dec-18 12:38 32.733948 -117.200446 254 24ft 0kts
06-Dec-18 12:39 32.733948 -117.200446 254 24ft 0kts
06-Dec-18 12:40 32.733948 -117.200446 254 24ft 0kts
06-Dec-18 12:41 32.733948 -117.200446 254 24ft 0kts
06-Dec-18 12:42 32.733948 -117.200446 254 24ft 0kts
06-Dec-18 12:43 32.733948 -117.200446 254 24ft 0kts
06-Dec-18 12:44 32.733948 -117.200446 254 24ft 0kts
06-Dec-18 12:45 32.733948 -117.200446 254 24ft 0kts
06-Dec-18 12:46 32.733948 -117.200446 254 24ft 0kts
06-Dec-18 12:47 32.733948 -117.200446 254 24ft 0kts
06-Dec-18 12:48 32.733948 -117.200446 254 24ft 0kts
06-Dec-18 12:49 32.733948 -117.200446 254 24ft 0kts
06-Dec-18 12:50 32.733948 -117.200446 254 24ft 0kts
06-Dec-18 12:51 32.733948 -117.200446 254 24ft 0kts
06-Dec-18 12:52 32.733948 -117.200446 254 24ft 0kts
06-Dec-18 12:53 32.733948 -117.200446 254 24ft 0kts
06-Dec-18 12:54 32.733948 -117.200446 254 24ft 0kts
06-Dec-18 12:55 32.733948 -117.200446 254 24ft 0kts
06-Dec-18 12:56 32.733949 -117.200444 254 24ft 0kts
06-Dec-18 12:57 32.733847 -117.199648 305 24ft 2kts
06-Dec-18 12:58 32.733755 -117.199520 313 24ft 0kts
06-Dec-18 12:59 32.733755 -117.199520 313 24ft 0kts
06-Dec-18 13:00 32.733755 -117.199520 313 24ft 0kts
06-Dec-18 13:01 32.733755 -117.199520 313 24ft 0kts
06-Dec-18 13:02 32.733756 -117.199521 313 24ft 0kts
06-Dec-18 13:03 32.733757 -117.199523 313 24ft 0kts
06-Dec-18 13:04 32.733972 -117.199655 354 24ft 0kts
06-Dec-18 13:05 32.735715 -117.202877 285 24ft 21kts
06-Dec-18 13:06 32.735989 -117.203968 291 24ft 0kts
06-Dec-18 13:07 32.736961 -117.203720 107 24ft 0kts
06-Dec-18 13:08 32.736961 -117.203717 107 24ft 0kts
06-Dec-18 13:09 32.736939 -117.203638 107 24ft 7kts
06-Dec-18 13:10 32.729327 -117.169817 109 940ft 161kts
06-Dec-18 13:11 32.715607 -117.114062 108 3444ft 196kts
06-Dec-18 13:12 32.724357 -117.045937 32 5744ft 266kts
06-Dec-18 13:13 32.793272 -117.071596 314 8427ft 290kts
06-Dec-18 13:14 32.854442 -117.137338 313 9972ft 291kts
06-Dec-18 13:15 32.914096 -117.200658 313 10007ft 290kts
06-Dec-18 13:16 32.975667 -117.265570 314 10001ft 297kts
06-Dec-18 13:17 33.037501 -117.330883 314 9989ft 297kts
06-Dec-18 13:18 33.099190 -117.396133 313 9988ft 294kts
06-Dec-18 13:19 33.161192 -117.461863 314 9868ft 292kts
06-Dec-18 13:20 33.221031 -117.525472 313 9871ft 287kts
06-Dec-18 13:21 33.282022 -117.588196 318 9975ft 289kts
06-Dec-18 13:22 33.345626 -117.651365 309 9983ft 298kts
06-Dec-18 13:23 33.401539 -117.722886 308 9985ft 288kts
06-Dec-18 13:24 33.464960 -117.784134 320 9997ft 300kts
06-Dec-18 13:25 33.533824 -117.842311 320 10004ft 303kts
06-Dec-18 13:26 33.602903 -117.900976 320 10003ft 304kts
06-Dec-18 13:27 33.671216 -117.959106 320 9998ft 295kts
06-Dec-18 13:28 33.737822 -118.015910 320 9990ft 293kts
06-Dec-18 13:29 33.798426 -118.079456 283 9996ft 288kts
06-Dec-18 13:30 33.815626 -118.171203 296 9994ft 294kts
06-Dec-18 13:31 33.859936 -118.254116 298 9873ft 293kts
06-Dec-18 13:32 33.894017 -118.339921 268 8101ft 276kts
06-Dec-18 13:33 33.891060 -118.431362 253 7999ft 271kts
06-Dec-18 13:34 33.875396 -118.516880 252 6743ft 239kts
06-Dec-18 13:35 33.862913 -118.590517 257 5024ft 222kts
06-Dec-18 13:36 33.891028 -118.650804 1 3106ft 219kts
06-Dec-18 13:37 33.914754 -118.595643 74 2023ft 210kts
06-Dec-18 13:38 33.921945 -118.533033 81 1926ft 180kts
06-Dec-18 13:39 33.927999 -118.474403 81 1068ft 166kts
06-Dec-18 13:40 33.932878 -118.426673 82 342ft 135kts
06-Dec-18 13:41 33.936117 -118.397975 65 135ft 25kts
06-Dec-18 13:42 33.936558 -118.397052 51 135ft 0kts
06-Dec-18 13:44 33.936711 -118.399858 263 135ft 18kts
06-Dec-18 13:45 33.936438 -118.403161 286 135ft 0kts
06-Dec-18 13:46 33.938908 -118.405444 357 135ft 11kts
06-Dec-18 13:47 33.939711 -118.404853 43 135ft 0kts
06-Dec-18 13:48 33.939711 -118.404853 43 135ft 0kts
06-Dec-18 13:49 33.939711 -118.404853 43 135ft 0kts
06-Dec-18 13:50 33.939711 -118.404853 43 135ft 0kts
06-Dec-18 13:51 33.939711 -118.404853 43 135ft 0kts
06-Dec-18 13:52 33.939711 -118.404853 43 135ft 0kts
06-Dec-18 13:53 33.939711 -118.404853 43 135ft 0kts
06-Dec-18 13:54 33.939711 -118.404853 43 135ft 0kts
06-Dec-18 13:55 33.939711 -118.404853 43 135ft 0kts
06-Dec-18 13:56 33.939711 -118.404853 43 135ft 0kts

Navigation Log

Ident Type
Flight plan parsing failed, navigation log unavailable